Time;durP1;ratioP1;P1;durP2;ratioP2;P2;SDS_P1;SDS_P2;PMS_P1;PMS_P2;Temp;Humidity;BMP_temperature;BMP_pressure;BME280_temperature;BME280_humidity;BME280_pressure;Samples;Min_cycle;Max_cycle;Signal;HPM_P1;HPM_P2
2022/03/18 00:00:18;;;;;;;36.28;20.40;;;8.50;90.60;;;;;;5052663;28;20202;-57
2022/03/18 00:02:46;;;;;;;34.47;19.85;;;8.40;90.80;;;;;;5052599;28;20205;-57
2022/03/18 00:05:14;;;;;;;36.25;21.80;;;8.40;91.10;;;;;;5052467;28;20259;-58
2022/03/18 00:07:42;;;;;;;35.25;21.95;;;8.50;90.90;;;;;;5054011;28;20637;-57
2022/03/18 00:10:09;;;;;;;38.67;20.63;;;8.50;90.60;;;;;;5055413;28;20197;-58
2022/03/18 00:12:37;;;;;;;33.30;19.20;;;8.50;90.30;;;;;;5056481;28;20304;-59
2022/03/18 00:15:06;;;;;;;34.72;20.20;;;8.40;90.80;;;;;;5056338;28;20212;-59
2022/03/18 00:17:33;;;;;;;37.03;20.80;;;8.40;90.70;;;;;;5056374;28;20660;-60
2022/03/18 00:20:01;;;;;;;35.83;20.42;;;8.40;91.00;;;;;;5056336;28;20621;-60
2022/03/18 00:22:28;;;;;;;32.67;20.00;;;8.40;90.80;;;;;;5055982;28;20308;-60
2022/03/18 00:24:55;;;;;;;33.05;20.33;;;8.50;90.60;;;;;;5055048;28;20560;-60
2022/03/18 00:27:22;;;;;;;35.47;19.35;;;8.40;90.60;;;;;;5056018;28;20224;-60
2022/03/18 00:29:49;;;;;;;33.55;20.48;;;8.30;90.90;;;;;;5056022;28;20208;-60
2022/03/18 00:32:16;;;;;;;30.70;18.02;;;8.30;90.80;;;;;;5056116;28;20207;-59
2022/03/18 00:34:43;;;;;;;33.55;20.10;;;8.30;90.70;;;;;;5055901;28;20600;-60
2022/03/18 00:37:11;;;;;;;29.70;17.83;;;8.30;90.90;;;;;;5055914;28;20280;-59
2022/03/18 00:39:38;;;;;;;31.65;19.27;;;8.30;90.90;;;;;;5054447;28;20300;-59
2022/03/18 00:42:06;;;;;;;31.38;18.85;;;8.30;90.80;;;;;;5056043;28;20197;-58
2022/03/18 00:44:33;;;;;;;33.30;19.15;;;8.40;90.70;;;;;;5055906;28;20576;-59
2022/03/18 00:47:00;;;;;;;29.83;17.23;;;8.50;90.00;;;;;;5055781;28;20212;-59
2022/03/18 00:52:14;;;;;;;29.45;17.48;;;8.50;90.00;;;;;;5055769;28;20205;-59
2022/03/18 00:54:42;;;;;;;27.02;16.70;;;8.50;89.90;;;;;;5054186;28;20536;-59
2022/03/18 00:57:10;;;;;;;28.10;16.95;;;8.40;90.00;;;;;;5055580;28;20244;-59
2022/03/18 00:59:37;;;;;;;30.38;18.00;;;8.50;90.00;;;;;;5055522;28;20290;-59
2022/03/18 01:02:04;;;;;;;29.75;17.83;;;8.50;89.40;;;;;;5055396;28;20205;-60
2022/03/18 01:04:31;;;;;;;28.20;17.10;;;8.40;89.60;;;;;;5055401;28;20206;-59
2022/03/18 01:06:59;;;;;;;30.00;17.90;;;8.40;89.90;;;;;;5055319;28;20203;-59
2022/03/18 01:09:27;;;;;;;28.23;16.38;;;8.40;89.70;;;;;;5053833;28;20229;-60
2022/03/18 01:11:55;;;;;;;25.98;16.73;;;8.30;90.20;;;;;;5055227;28;20291;-59
2022/03/18 01:14:23;;;;;;;27.10;16.30;;;8.40;90.20;;;;;;5055222;28;20206;-59
2022/03/18 01:16:50;;;;;;;30.80;17.60;;;8.40;89.70;;;;;;5055022;28;20205;-59
2022/03/18 01:19:18;;;;;;;26.23;16.25;;;8.50;89.60;;;;;;5054454;28;20205;-59
2022/03/18 01:21:45;;;;;;;27.88;15.93;;;8.40;89.60;;;;;;5055251;28;20205;-59
2022/03/18 01:24:11;;;;;;;28.73;17.77;;;8.40;89.50;;;;;;5053722;28;20240;-59
2022/03/18 01:26:40;;;;;;;25.60;15.90;;;8.40;89.60;;;;;;5054943;28;20198;-59
2022/03/18 01:29:07;;;;;;;26.92;16.30;;;8.30;89.50;;;;;;5054895;28;20708;-59
2022/03/18 01:31:34;;;;;;;26.13;15.68;;;8.30;89.70;;;;;;5054855;28;20207;-59
2022/03/18 01:34:01;;;;;;;25.17;16.35;;;8.30;90.30;;;;;;5054860;28;20201;-59
2022/03/18 01:36:28;;;;;;;25.58;15.70;;;8.20;90.00;;;;;;5054921;28;20208;-59
2022/03/18 01:38:54;;;;;;;27.55;16.00;;;8.10;90.30;;;;;;5053540;28;20201;-59
2022/03/18 01:41:22;;;;;;;24.42;15.80;;;8.20;90.50;;;;;;5054732;28;20292;-59
2022/03/18 01:43:50;;;;;;;26.73;16.23;;;8.10;90.50;;;;;;5054597;28;20569;-59
2022/03/18 01:46:18;;;;;;;24.90;15.30;;;8.10;90.50;;;;;;5054687;28;20208;-59
2022/03/18 01:48:46;;;;;;;27.58;15.95;;;8.10;90.70;;;;;;5054709;28;20747;-59
2022/03/18 01:51:15;;;;;;;26.02;14.88;;;8.10;90.70;;;;;;5054568;28;20562;-59
2022/03/18 01:53:43;;;;;;;27.75;15.85;;;8.20;90.30;;;;;;5053286;28;20263;-59
2022/03/18 01:56:11;;;;;;;27.80;16.08;;;8.20;90.10;;;;;;5054349;28;20204;-59
2022/03/18 01:58:37;;;;;;;25.35;15.55;;;8.10;90.10;;;;;;5054522;28;20201;-59
2022/03/18 02:01:06;;;;;;;25.10;15.15;;;8.10;90.50;;;;;;5054388;28;20216;-59
2022/03/18 02:03:33;;;;;;;24.15;14.65;;;8.10;90.70;;;;;;5054517;28;20305;-59
2022/03/18 02:06:00;;;;;;;24.50;14.63;;;8.10;90.40;;;;;;5054399;28;20652;-59
2022/03/18 02:08:28;;;;;;;25.42;15.60;;;8.10;90.50;;;;;;5052881;28;20233;-59
2022/03/18 02:10:55;;;;;;;24.80;15.30;;;8.10;90.00;;;;;;5054034;28;20296;-59
2022/03/18 02:13:22;;;;;;;27.48;14.57;;;8.10;90.30;;;;;;5054261;28;20206;-59
2022/03/18 02:15:49;;;;;;;24.95;14.40;;;8.10;90.00;;;;;;5054178;28;20206;-59
2022/03/18 02:18:17;;;;;;;24.60;14.65;;;8.10;90.20;;;;;;5054001;28;20216;-59
2022/03/18 02:20:44;;;;;;;23.88;14.90;;;7.90;90.20;;;;;;5054150;28;20686;-59
2022/03/18 02:23:12;;;;;;;25.75;14.02;;;7.80;90.80;;;;;;5052670;28;20241;-59
2022/03/18 02:25:39;;;;;;;22.52;13.85;;;7.80;91.30;;;;;;5053758;28;20201;-59
2022/03/18 02:28:06;;;;;;;25.33;15.48;;;7.80;91.20;;;;;;5053787;28;20229;-59
2022/03/18 02:30:34;;;;;;;30.23;15.60;;;7.80;91.20;;;;;;5053801;28;20240;-59
2022/03/18 02:33:01;;;;;;;22.20;12.98;;;7.80;91.20;;;;;;5053685;28;20201;-58
2022/03/18 02:35:29;;;;;;;23.35;14.20;;;7.70;91.10;;;;;;5053764;28;20218;-59
2022/03/18 02:37:57;;;;;;;23.33;14.10;;;7.70;91.30;;;;;;5052271;28;20224;-58
2022/03/18 02:40:27;;;;;;;25.52;13.93;;;7.80;91.70;;;;;;5053409;28;20756;-59
2022/03/18 02:42:54;;;;;;;26.02;14.30;;;7.80;91.20;;;;;;5053586;28;20206;-58
2022/03/18 02:45:21;;;;;;;26.35;15.43;;;7.80;90.90;;;;;;5053666;28;20201;-60
2022/03/18 02:47:48;;;;;;;26.25;15.90;;;7.80;91.00;;;;;;5053419;28;20543;-59
2022/03/18 02:50:16;;;;;;;24.20;14.35;;;7.80;90.80;;;;;;5053542;28;20626;-59
2022/03/18 02:52:43;;;;;;;28.95;15.32;;;7.90;90.40;;;;;;5053412;28;20241;-59
2022/03/18 02:55:10;;;;;;;24.95;13.82;;;7.90;90.60;;;;;;5052165;28;20280;-58
2022/03/18 02:57:39;;;;;;;29.33;15.20;;;7.90;90.30;;;;;;5053550;28;20206;-58
2022/03/18 03:00:08;;;;;;;23.25;14.95;;;7.80;90.20;;;;;;5053238;28;20664;-59
2022/03/18 03:02:35;;;;;;;24.52;14.60;;;7.80;90.90;;;;;;5053280;28;20255;-60
2022/03/18 03:08:01;;;;;;;25.85;14.70;;;7.80;90.20;;;;;;5052911;28;20201;-59
2022/03/18 03:10:29;;;;;;;22.83;14.15;;;7.70;90.60;;;;;;5053114;28;20296;-59
2022/03/18 03:12:59;;;;;;;22.77;14.73;;;7.70;90.40;;;;;;5053103;28;20198;-59
2022/03/18 03:15:26;;;;;;;19.90;12.57;;;7.70;90.60;;;;;;5053064;28;20259;-58
2022/03/18 03:17:53;;;;;;;24.77;14.90;;;7.70;90.80;;;;;;5052775;28;20571;-58
2022/03/18 03:20:20;;;;;;;26.08;15.13;;;7.80;90.60;;;;;;5053075;28;20212;-58
2022/03/18 03:22:47;;;;;;;25.63;15.40;;;7.90;90.60;;;;;;5052335;28;20264;-58
2022/03/18 03:25:14;;;;;;;29.10;16.33;;;7.90;90.10;;;;;;5052335;28;20272;-59
2022/03/18 03:27:40;;;;;;;25.45;14.93;;;7.90;90.30;;;;;;5052919;28;20209;-58
2022/03/18 03:30:11;;;;;;;25.90;14.77;;;8.00;90.10;;;;;;5052682;28;20239;-58
2022/03/18 03:32:39;;;;;;;27.27;14.88;;;8.10;89.70;;;;;;5052770;28;20660;-58
2022/03/18 03:35:08;;;;;;;29.55;16.60;;;8.10;89.40;;;;;;5052841;28;20229;-58
2022/03/18 03:37:35;;;;;;;26.80;14.75;;;8.00;89.20;;;;;;5052759;28;20212;-58
2022/03/18 03:40:02;;;;;;;28.08;15.88;;;8.00;89.20;;;;;;5051429;28;20197;-58
2022/03/18 03:42:29;;;;;;;25.50;14.35;;;7.90;89.10;;;;;;5052177;28;20574;-58
2022/03/18 03:44:56;;;;;;;28.05;15.68;;;7.80;89.80;;;;;;5052636;28;20205;-58
2022/03/18 03:47:24;;;;;;;23.35;15.10;;;7.80;89.70;;;;;;5052783;28;20628;-58
2022/03/18 03:49:51;;;;;;;22.83;14.63;;;7.80;89.50;;;;;;5052598;28;20240;-58
2022/03/18 03:52:18;;;;;;;28.58;15.45;;;7.80;89.70;;;;;;5052779;28;20295;-58
2022/03/18 03:54:45;;;;;;;23.25;14.48;;;7.80;89.90;;;;;;5051316;28;20249;-58
2022/03/18 03:57:12;;;;;;;23.98;13.88;;;7.90;90.00;;;;;;5052441;28;20245;-58
2022/03/18 03:59:39;;;;;;;22.88;14.10;;;7.80;89.80;;;;;;5052669;28;20239;-58
2022/03/18 04:02:06;;;;;;;25.05;15.20;;;7.80;89.70;;;;;;5052657;28;20303;-58
2022/03/18 04:04:34;;;;;;;24.83;13.65;;;7.80;89.90;;;;;;5052485;28;20197;-59
2022/03/18 04:07:01;;;;;;;26.58;16.00;;;7.80;89.70;;;;;;5052547;28;20228;-58
2022/03/18 04:09:28;;;;;;;24.63;14.38;;;7.90;89.60;;;;;;5051112;28;20255;-58
2022/03/18 04:11:55;;;;;;;23.90;14.65;;;7.80;89.30;;;;;;5052328;28;20205;-58
2022/03/18 04:14:22;;;;;;;23.38;13.93;;;7.70;89.30;;;;;;5052470;28;20292;-58
2022/03/18 04:16:49;;;;;;;25.48;14.10;;;7.70;90.40;;;;;;5052346;28;20237;-58
2022/03/18 04:19:16;;;;;;;27.38;14.73;;;7.70;90.20;;;;;;5052491;28;20201;-58
2022/03/18 04:21:44;;;;;;;24.25;14.43;;;7.80;89.90;;;;;;5052396;28;20296;-58
2022/03/18 04:24:11;;;;;;;23.95;14.63;;;7.80;89.70;;;;;;5051059;28;20319;-58
2022/03/18 04:26:38;;;;;;;26.10;14.80;;;7.80;89.80;;;;;;5052110;28;20347;-58
2022/03/18 04:29:05;;;;;;;27.85;14.55;;;7.80;90.10;;;;;;5052192;28;20264;-58
2022/03/18 04:31:32;;;;;;;26.95;14.00;;;7.80;89.90;;;;;;5052242;28;20202;-58
2022/03/18 04:33:59;;;;;;;27.10;14.70;;;7.80;89.60;;;;;;5052108;28;20711;-58
2022/03/18 04:36:25;;;;;;;28.30;16.45;;;7.80;89.30;;;;;;5052261;28;20209;-58
2022/03/18 04:38:54;;;;;;;29.90;16.35;;;7.90;89.20;;;;;;5050873;28;20308;-58
2022/03/18 04:41:21;;;;;;;26.23;15.02;;;7.90;89.20;;;;;;5051901;28;20545;-58
2022/03/18 04:43:48;;;;;;;27.55;15.32;;;7.90;88.80;;;;;;5052212;28;20225;-58
2022/03/18 04:46:15;;;;;;;27.63;14.30;;;7.90;89.10;;;;;;5052161;28;20220;-58
2022/03/18 04:48:42;;;;;;;23.45;14.40;;;7.90;89.00;;;;;;5051885;28;20236;-58
2022/03/18 04:51:08;;;;;;;25.02;14.10;;;8.00;88.60;;;;;;5052056;28;20207;-58
2022/03/18 04:53:36;;;;;;;24.92;14.20;;;7.90;88.40;;;;;;5050716;28;20204;-58
2022/03/18 04:56:04;;;;;;;22.52;13.57;;;7.90;88.70;;;;;;5055320;28;20237;-58
2022/03/18 04:58:32;;;;;;;26.85;14.70;;;7.80;89.20;;;;;;5055660;28;20202;-58
2022/03/18 05:00:58;;;;;;;27.25;15.43;;;7.70;89.30;;;;;;5055572;28;20201;-58
2022/03/18 05:03:25;;;;;;;30.15;16.15;;;7.80;89.40;;;;;;5055580;28;20292;-58
2022/03/18 05:05:52;;;;;;;26.02;15.20;;;7.70;89.10;;;;;;5055565;28;20624;-58
2022/03/18 05:08:19;;;;;;;24.65;15.00;;;7.70;89.10;;;;;;5053927;28;20197;-58
2022/03/18 05:10:48;;;;;;;30.98;15.52;;;7.80;89.30;;;;;;5055166;28;20699;-58
2022/03/18 05:13:17;;;;;;;25.02;15.20;;;7.70;89.00;;;;;;5055370;28;20292;-58
2022/03/18 05:15:43;;;;;;;26.83;15.95;;;7.70;89.10;;;;;;5055194;28;20201;-58
2022/03/18 05:18:10;;;;;;;25.73;15.88;;;7.60;89.50;;;;;;5055036;28;20703;-58
2022/03/18 05:20:37;;;;;;;28.98;15.15;;;7.70;89.50;;;;;;5055108;28;20205;-56
2022/03/18 05:23:04;;;;;;;23.15;13.30;;;7.70;89.20;;;;;;5053562;28;20778;-58
2022/03/18 05:25:31;;;;;;;27.23;14.32;;;7.80;88.80;;;;;;5054958;28;20715;-58
2022/03/18 05:27:58;;;;;;;24.85;15.25;;;7.70;88.90;;;;;;5054939;28;20292;-58
2022/03/18 05:30:26;;;;;;;27.40;16.38;;;7.70;89.20;;;;;;5054955;28;20240;-58
2022/03/18 05:32:52;;;;;;;24.90;15.43;;;7.60;89.10;;;;;;5054724;28;20221;-58
2022/03/18 05:35:20;;;;;;;28.15;14.98;;;7.60;89.70;;;;;;5054877;28;20233;-58
2022/03/18 05:37:48;;;;;;;24.85;14.20;;;7.50;89.80;;;;;;5054485;28;20797;-58
2022/03/18 05:40:18;;;;;;;26.98;15.77;;;7.50;89.50;;;;;;5054389;28;20205;-58
2022/03/18 05:42:45;;;;;;;26.05;14.73;;;7.50;89.60;;;;;;5054653;28;20227;-58
2022/03/18 05:45:11;;;;;;;29.08;15.63;;;7.50;89.60;;;;;;5054932;28;20209;-58
2022/03/18 05:47:40;;;;;;;29.75;15.50;;;7.50;89.50;;;;;;5054736;28;20236;-58
2022/03/18 05:50:08;;;;;;;27.27;15.02;;;7.40;90.00;;;;;;5054427;28;20249;-58
2022/03/18 05:52:36;;;;;;;26.83;15.55;;;7.40;90.00;;;;;;5054667;28;20201;-58
2022/03/18 05:55:03;;;;;;;22.38;14.13;;;7.30;89.70;;;;;;5053287;28;20660;-58
2022/03/18 05:57:29;;;;;;;27.27;15.90;;;7.30;89.50;;;;;;5054442;28;20201;-58
2022/03/18 05:59:58;;;;;;;30.58;16.08;;;7.40;89.80;;;;;;5054522;28;20635;-58
2022/03/18 06:02:26;;;;;;;26.27;15.40;;;7.40;89.70;;;;;;5054355;28;20205;-58
2022/03/18 06:04:54;;;;;;;28.95;15.85;;;7.50;89.40;;;;;;5053983;28;20699;-58
2022/03/18 06:07:21;;;;;;;29.77;16.52;;;7.40;89.00;;;;;;5054268;28;20272;-58
2022/03/18 06:12:32;;;;;;;28.30;15.65;;;7.50;89.50;;;;;;5054101;28;20196;-58
2022/03/18 06:14:59;;;;;;;31.85;16.75;;;7.50;89.40;;;;;;5054114;28;20198;-58
2022/03/18 06:17:26;;;;;;;29.90;15.73;;;7.50;89.70;;;;;;5054106;28;20653;-58
2022/03/18 06:19:54;;;;;;;35.05;17.80;;;7.50;89.50;;;;;;5053965;28;20296;-58
2022/03/18 06:22:21;;;;;;;31.17;17.02;;;7.40;89.90;;;;;;5053831;28;20225;-58
2022/03/18 06:24:48;;;;;;;26.13;15.75;;;7.30;89.60;;;;;;5052579;28;20574;-58
2022/03/18 06:27:15;;;;;;;26.95;16.10;;;7.30;90.50;;;;;;5053596;28;20581;-58
2022/03/18 06:29:43;;;;;;;31.20;17.17;;;7.40;90.40;;;;;;5053592;28;20233;-58
2022/03/18 06:32:11;;;;;;;32.08;17.33;;;7.50;90.40;;;;;;5053661;28;20221;-58
2022/03/18 06:34:38;;;;;;;27.05;14.68;;;7.40;89.70;;;;;;5053676;28;20213;-58
2022/03/18 06:37:07;;;;;;;29.38;16.25;;;7.40;90.30;;;;;;5053722;28;20206;-58
2022/03/18 06:39:34;;;;;;;31.17;17.27;;;7.40;90.60;;;;;;5052370;28;20205;-58
2022/03/18 06:42:02;;;;;;;29.63;15.85;;;7.40;89.70;;;;;;5053594;28;20260;-58
2022/03/18 06:44:29;;;;;;;30.23;16.45;;;7.30;89.80;;;;;;5053443;28;20235;-58
2022/03/18 06:46:56;;;;;;;27.27;15.90;;;7.30;89.90;;;;;;5053489;28;20239;-58
2022/03/18 06:49:23;;;;;;;27.95;17.05;;;7.40;89.50;;;;;;5053345;28;20687;-58
2022/03/18 06:51:50;;;;;;;27.23;16.42;;;7.40;89.70;;;;;;5053448;28;20205;-58
2022/03/18 06:54:18;;;;;;;30.20;16.60;;;7.30;90.00;;;;;;5052041;28;20210;-58
2022/03/18 06:56:45;;;;;;;30.50;16.80;;;7.50;90.30;;;;;;5052906;28;20295;-58
2022/03/18 06:59:11;;;;;;;31.02;17.70;;;7.50;89.70;;;;;;5053198;28;20292;-58
2022/03/18 07:01:38;;;;;;;32.03;17.65;;;7.60;89.70;;;;;;5053208;28;20296;-58
2022/03/18 07:04:05;;;;;;;34.50;17.05;;;7.70;89.00;;;;;;5053418;28;20295;-58
2022/03/18 07:06:32;;;;;;;31.95;18.05;;;7.80;89.30;;;;;;5053322;28;20266;-58
2022/03/18 07:08:59;;;;;;;34.72;18.05;;;7.80;88.50;;;;;;5051727;28;20201;-58
2022/03/18 07:11:27;;;;;;;31.60;17.80;;;7.80;88.50;;;;;;5052700;28;20235;-58
2022/03/18 07:13:54;;;;;;;33.10;19.38;;;7.80;88.40;;;;;;5052932;28;20296;-58
2022/03/18 07:19:05;;;;;;;37.72;20.23;;;7.80;88.90;;;;;;5052850;28;20231;-58
2022/03/18 07:21:34;;;;;;;31.30;18.45;;;7.80;88.50;;;;;;5053068;28;20289;-58
2022/03/18 07:24:00;;;;;;;36.78;19.25;;;7.80;88.50;;;;;;5051266;28;20239;-58
2022/03/18 07:26:29;;;;;;;31.98;19.27;;;7.70;88.70;;;;;;5052840;28;20296;-58
2022/03/18 07:28:56;;;;;;;37.67;19.67;;;7.70;88.70;;;;;;5052837;28;20336;-58
2022/03/18 07:31:23;;;;;;;36.83;19.58;;;7.80;89.00;;;;;;5052695;28;20717;-58
2022/03/18 07:33:51;;;;;;;36.88;21.33;;;7.90;89.30;;;;;;5052791;28;20295;-58
2022/03/18 07:36:18;;;;;;;31.25;18.30;;;8.00;88.90;;;;;;5052773;28;20561;-58
2022/03/18 07:38:45;;;;;;;33.67;20.23;;;8.00;88.40;;;;;;5051395;28;20205;-58
2022/03/18 07:41:12;;;;;;;35.95;18.80;;;7.90;89.20;;;;;;5052426;28;20284;-58
2022/03/18 07:43:41;;;;;;;39.63;20.90;;;8.00;89.40;;;;;;5052660;28;20201;-58
2022/03/18 07:46:08;;;;;;;39.00;20.42;;;8.10;89.10;;;;;;5052549;28;20215;-58
2022/03/18 07:48:39;;;;;;;39.90;21.40;;;8.10;88.50;;;;;;5052629;28;20213;-58
2022/03/18 07:51:07;;;;;;;38.10;20.92;;;8.20;88.30;;;;;;5052371;28;20233;-58
2022/03/18 07:53:33;;;;;;;38.40;21.60;;;8.30;88.00;;;;;;5051290;28;20678;-58
2022/03/18 07:56:00;;;;;;;40.22;23.48;;;8.30;87.70;;;;;;5052406;28;20270;-58
2022/03/18 07:58:27;;;;;;;42.30;22.45;;;8.20;88.40;;;;;;5052361;28;20527;-58
2022/03/18 08:00:56;;;;;;;40.83;23.33;;;8.30;88.00;;;;;;5052510;28;20241;-58
2022/03/18 08:03:23;;;;;;;44.22;22.38;;;8.30;87.90;;;;;;5052642;28;20682;-58
2022/03/18 08:05:50;;;;;;;40.20;23.15;;;8.20;88.40;;;;;;5052269;28;20565;-58
2022/03/18 08:08:17;;;;;;;44.97;24.00;;;8.20;88.40;;;;;;5051166;28;20292;-58
2022/03/18 08:10:44;;;;;;;42.13;23.75;;;8.30;88.60;;;;;;5052322;28;20700;-58
2022/03/18 08:13:11;;;;;;;41.30;23.40;;;8.40;88.00;;;;;;5052156;28;20201;-58
2022/03/18 08:15:38;;;;;;;41.05;24.10;;;8.40;86.90;;;;;;5052314;28;20216;-58
2022/03/18 08:18:10;;;;;;;44.13;24.65;;;8.50;87.50;;;;;;5052309;28;20237;-58
2022/03/18 08:20:40;;;;;;;44.67;23.92;;;8.60;86.60;;;;;;5052435;28;20202;-58
2022/03/18 08:23:07;;;;;;;47.53;25.17;;;8.60;86.80;;;;;;5050911;28;20237;-58
2022/03/18 08:25:34;;;;;;;45.50;25.58;;;8.70;86.20;;;;;;5052279;28;20201;-58
2022/03/18 08:28:01;;;;;;;49.45;25.65;;;8.60;86.50;;;;;;5052455;28;20201;-58
2022/03/18 08:30:29;;;;;;;46.65;25.80;;;8.60;86.30;;;;;;5056021;28;20264;-58
2022/03/18 08:32:55;;;;;;;46.88;25.65;;;8.60;85.50;;;;;;5055958;28;20225;-58
2022/03/18 08:35:24;;;;;;;41.78;24.73;;;8.40;86.20;;;;;;5055908;28;20652;-58
2022/03/18 08:37:57;;;;;;;48.05;25.13;;;8.30;86.10;;;;;;5054972;28;20229;-58
2022/03/18 08:40:25;;;;;;;43.28;23.73;;;8.20;86.70;;;;;;5055967;28;20217;-58
2022/03/18 08:42:52;;;;;;;48.10;25.80;;;8.30;86.80;;;;;;5055698;28;20579;-58
2022/03/18 08:45:20;;;;;;;46.85;24.85;;;8.30;86.20;;;;;;5055676;28;20220;-58
2022/03/18 08:47:47;;;;;;;47.08;25.42;;;8.50;86.70;;;;;;5055666;28;20244;-58
2022/03/18 08:50:15;;;;;;;45.10;26.13;;;8.50;86.20;;;;;;5055700;28;20239;-58
2022/03/18 08:52:45;;;;;;;48.22;25.27;;;8.50;86.10;;;;;;5055698;28;20205;-58
2022/03/18 08:55:12;;;;;;;45.28;24.58;;;8.40;87.00;;;;;;5054569;28;20201;-58
2022/03/18 08:57:39;;;;;;;44.53;24.73;;;8.40;86.10;;;;;;5055349;28;20202;-58
2022/03/18 09:00:08;;;;;;;47.00;25.70;;;8.50;85.50;;;;;;5055436;28;20296;-58
2022/03/18 09:02:36;;;;;;;44.72;24.63;;;8.50;85.10;;;;;;5055417;28;20244;-58
2022/03/18 09:05:03;;;;;;;41.60;25.05;;;8.40;85.80;;;;;;5055434;28;20217;-58
2022/03/18 09:07:30;;;;;;;43.72;23.98;;;8.40;85.50;;;;;;5055404;28;20293;-58
2022/03/18 09:09:59;;;;;;;39.83;23.45;;;8.50;85.70;;;;;;5053866;28;20197;-58
2022/03/18 09:12:25;;;;;;;38.47;22.40;;;8.50;85.70;;;;;;5054921;28;20205;-58
2022/03/18 09:14:52;;;;;;;45.80;24.23;;;8.60;86.80;;;;;;5055495;28;20555;-57
2022/03/18 09:20:00;;;;;;;37.90;21.30;;;8.60;85.10;;;;;;5052846;28;20216;-57
2022/03/18 09:22:27;;;;;;;35.60;22.13;;;8.60;84.80;;;;;;5054908;28;20338;-57
2022/03/18 09:24:53;;;;;;;38.17;22.75;;;8.60;85.30;;;;;;5053734;28;20559;-57
2022/03/18 09:27:22;;;;;;;39.47;21.30;;;8.60;84.70;;;;;;5054847;28;20296;-57
2022/03/18 09:29:49;;;;;;;38.95;22.20;;;8.60;84.60;;;;;;5054777;28;20667;-57
2022/03/18 09:32:16;;;;;;;33.90;20.60;;;8.50;84.70;;;;;;5054912;28;20228;-57
2022/03/18 09:34:43;;;;;;;33.80;21.38;;;8.50;83.90;;;;;;5054983;28;20217;-57
2022/03/18 09:37:10;;;;;;;34.05;20.95;;;8.60;84.80;;;;;;5054828;28;20201;-57
2022/03/18 09:39:36;;;;;;;36.60;21.70;;;8.70;84.10;;;;;;5052892;28;20204;-57
2022/03/18 09:42:04;;;;;;;34.33;20.55;;;8.80;84.20;;;;;;5054240;28;20240;-57
2022/03/18 09:44:37;;;;;;;39.85;23.05;;;8.80;83.60;;;;;;5054640;28;20233;-57
2022/03/18 09:47:05;;;;;;;38.28;22.75;;;8.70;83.10;;;;;;5054624;28;20209;-57
2022/03/18 09:49:34;;;;;;;38.08;22.95;;;8.90;83.40;;;;;;5054516;28;20652;-57
2022/03/18 09:52:02;;;;;;;34.05;21.33;;;8.90;82.90;;;;;;5054339;28;20235;-57
2022/03/18 09:54:31;;;;;;;35.38;20.58;;;8.90;83.60;;;;;;5053229;28;20296;-57
2022/03/18 09:56:58;;;;;;;32.45;20.02;;;9.00;81.70;;;;;;5054162;28;20404;-57
2022/03/18 09:59:27;;;;;;;35.72;22.15;;;9.00;82.70;;;;;;5054405;28;20208;-57
2022/03/18 10:02:23;;;;;;;32.45;20.02;;;9.00;81.60;;;;;;5054151;28;20213;-57
2022/03/18 10:04:56;;;;;;;39.08;21.85;;;9.20;82.20;;;;;;5051672;28;20223;-57
2022/03/18 10:07:23;;;;;;;37.47;22.02;;;9.40;80.80;;;;;;5054255;28;20209;-57
2022/03/18 10:10:02;;;;;;;36.97;22.33;;;9.40;80.60;;;;;;5052781;28;20666;-57
2022/03/18 10:12:30;;;;;;;40.53;23.90;;;9.50;82.70;;;;;;5054231;28;20220;-57
2022/03/18 10:15:05;;;;;;;35.25;22.58;;;9.70;81.20;;;;;;5054071;28;20209;-57
2022/03/18 10:17:43;;;;;;;30.40;21.23;;;9.90;78.70;;;;;;5053889;28;20211;-57
2022/03/18 10:20:30;;;;;;;32.65;22.02;;;10.10;79.40;;;;;;5054262;28;20213;-57
2022/03/18 10:22:59;;;;;;;37.38;21.60;;;10.20;78.60;;;;;;5052481;28;20265;-57
2022/03/18 10:25:38;;;;;;;31.50;21.77;;;10.30;77.30;;;;;;5053867;28;20198;-57
2022/03/18 10:28:05;;;;;;;32.50;21.98;;;10.40;77.90;;;;;;5053761;28;20253;-57
2022/03/18 10:30:32;;;;;;;36.70;23.65;;;10.50;77.00;;;;;;5053735;28;20815;-57
2022/03/18 10:33:00;;;;;;;29.63;21.35;;;10.60;77.20;;;;;;5053831;28;20270;-57
2022/03/18 10:38:31;;;;;;;32.72;22.65;;;10.80;74.90;;;;;;5052456;28;20575;-57
2022/03/18 10:40:59;;;;;;;36.63;23.35;;;10.90;74.90;;;;;;5053693;28;20201;-57
2022/03/18 10:43:26;;;;;;;35.95;23.08;;;11.00;75.70;;;;;;5053634;28;20657;-57
2022/03/18 10:46:03;;;;;;;36.47;25.17;;;10.90;74.50;;;;;;5053666;28;20237;-57
2022/03/18 10:48:30;;;;;;;35.13;23.48;;;10.90;73.90;;;;;;5053258;28;20703;-57
2022/03/18 10:51:08;;;;;;;34.30;23.20;;;10.90;73.50;;;;;;5053212;28;20233;-57
2022/03/18 10:53:37;;;;;;;33.60;23.63;;;11.00;73.60;;;;;;5051575;28;20270;-57
2022/03/18 10:56:04;;;;;;;39.67;24.70;;;11.10;72.10;;;;;;5053391;28;20201;-57
2022/03/18 10:58:32;;;;;;;33.03;23.02;;;11.30;74.20;;;;;;5053124;28;20288;-57
2022/03/18 11:01:02;;;;;;;32.25;23.30;;;11.30;74.10;;;;;;5053125;28;20210;-58
2022/03/18 11:03:30;;;;;;;35.50;24.10;;;11.50;71.70;;;;;;5053324;28;20243;-57
2022/03/18 11:06:02;;;;;;;30.73;22.83;;;11.50;72.90;;;;;;5053251;28;20201;-57
2022/03/18 11:08:36;;;;;;;36.90;24.52;;;11.30;74.10;;;;;;5051816;28;20233;-57
2022/03/18 11:11:10;;;;;;;37.17;25.10;;;11.30;73.30;;;;;;5053050;28;20229;-57
2022/03/18 11:13:45;;;;;;;34.65;25.35;;;11.40;73.30;;;;;;5052833;28;20205;-57
2022/03/18 11:16:13;;;;;;;32.13;23.45;;;11.30;73.10;;;;;;5053104;28;20563;-57
2022/03/18 11:18:43;;;;;;;35.78;23.75;;;11.40;72.80;;;;;;5053013;28;20209;-57
2022/03/18 11:21:11;;;;;;;32.15;24.92;;;11.40;73.80;;;;;;5053202;28;20209;-57
2022/03/18 11:23:42;;;;;;;36.50;25.42;;;11.40;72.50;;;;;;5051516;28;20324;-57
2022/03/18 11:26:13;;;;;;;36.97;25.63;;;11.60;72.30;;;;;;5052813;28;20201;-57
2022/03/18 11:28:40;;;;;;;36.00;26.08;;;11.80;71.80;;;;;;5052728;28;20236;-57
2022/03/18 11:31:08;;;;;;;33.45;25.73;;;11.80;71.10;;;;;;5052644;28;20233;-57
2022/03/18 11:33:35;;;;;;;38.30;26.90;;;11.80;71.10;;;;;;5052799;28;20205;-57
2022/03/18 11:36:20;;;;;;;36.78;25.98;;;11.90;69.30;;;;;;5052969;28;20205;-57
2022/03/18 11:39:02;;;;;;;37.53;25.77;;;12.00;70.00;;;;;;5051613;28;20225;-57
2022/03/18 11:41:48;;;;;;;35.20;25.70;;;12.10;69.70;;;;;;5052741;28;20209;-57
2022/03/18 11:44:40;;;;;;;35.38;26.10;;;12.30;70.20;;;;;;5052974;28;20247;-57
2022/03/18 11:47:41;;;;;;;34.55;25.67;;;12.60;68.80;;;;;;5052691;28;20220;-57
2022/03/18 11:50:48;;;;;;;31.92;23.02;;;12.70;70.80;;;;;;5052739;28;20207;-57
2022/03/18 11:53:36;;;;;;;31.40;23.98;;;13.20;68.80;;;;;;5051216;28;20205;-58
2022/03/18 11:56:11;;;;;;;33.95;24.83;;;13.60;67.00;;;;;;5052565;28;20216;-57
2022/03/18 11:58:38;;;;;;;33.90;25.80;;;13.70;65.60;;;;;;5052436;28;20204;-57
2022/03/18 12:01:05;;;;;;;33.30;24.52;;;13.80;65.50;;;;;;5052590;28;20208;-57
2022/03/18 12:03:37;;;;;;;33.72;25.05;;;13.90;66.40;;;;;;5053740;28;20198;-58
2022/03/18 12:06:04;;;;;;;30.75;23.58;;;14.00;66.20;;;;;;5056546;28;20212;-57
2022/03/18 12:09:03;;;;;;;33.50;24.80;;;14.10;66.70;;;;;;5055299;28;20208;-57
2022/03/18 12:11:37;;;;;;;33.50;25.38;;;14.30;65.10;;;;;;5056425;28;20336;-58
2022/03/18 12:14:06;;;;;;;33.42;24.50;;;14.50;64.90;;;;;;5056144;28;20212;-58
2022/03/18 12:16:33;;;;;;;35.42;24.65;;;14.40;64.20;;;;;;5056364;28;20201;-58
2022/03/18 12:19:00;;;;;;;32.03;24.70;;;14.60;63.50;;;;;;5056299;28;20236;-57
2022/03/18 12:21:42;;;;;;;35.03;25.20;;;14.50;64.50;;;;;;5056274;28;20205;-58
2022/03/18 12:24:10;;;;;;;35.05;26.90;;;14.60;63.50;;;;;;5054739;28;20237;-58
2022/03/18 12:26:40;;;;;;;35.70;26.02;;;14.20;65.20;;;;;;5056169;28;20307;-58
2022/03/18 12:29:07;;;;;;;35.63;27.50;;;13.80;65.90;;;;;;5056015;28;20209;-57
2022/03/18 12:31:35;;;;;;;34.83;25.90;;;13.60;66.50;;;;;;5056066;28;20233;-58
2022/03/18 12:34:07;;;;;;;34.55;26.77;;;13.50;64.70;;;;;;5056078;28;20223;-60
2022/03/18 12:36:35;;;;;;;36.15;25.20;;;13.50;65.40;;;;;;5055791;28;20296;-58
2022/03/18 12:39:10;;;;;;;36.35;27.23;;;13.40;65.70;;;;;;5054710;28;20201;-58
2022/03/18 12:41:38;;;;;;;39.45;27.05;;;13.30;67.50;;;;;;5055914;28;20286;-58
2022/03/18 12:44:06;;;;;;;37.25;28.30;;;13.40;67.70;;;;;;5055703;28;20205;-58
2022/03/18 12:46:35;;;;;;;38.10;27.55;;;13.20;67.40;;;;;;5055729;28;20543;-57
2022/03/18 12:49:02;;;;;;;34.40;25.08;;;13.00;67.90;;;;;;5055775;28;20205;-58
2022/03/18 12:51:29;;;;;;;34.53;26.77;;;13.00;65.90;;;;;;5055559;28;20228;-57
2022/03/18 12:53:58;;;;;;;38.35;27.35;;;12.90;66.20;;;;;;5054417;28;20204;-58
2022/03/18 12:56:29;;;;;;;37.42;28.83;;;13.10;65.30;;;;;;5055649;28;20207;-58
2022/03/18 12:58:58;;;;;;;38.90;29.05;;;13.20;69.00;;;;;;5055356;28;20636;-58